首页
METAR-TAF:

METAR-TAF

机场 :

杰克逊维尔, 佛罗里达州, 美国

纬度: 30-13-07N, 经度: 081-52-36W, 海拔: 25米

当前天气观测

该预报发布于57分钟前的02:50 UTC
风速13节,风向北转东北
温度 9°C
湿度 93%
气压 1021 hPa
能見度: 16.1公里
多云层高于800英尺
多云层高于1300英尺
阴天层高于2100英尺
小毛毛雨

METAR: KVQQ 210250Z 02013KT 10SM -DZ BKN008 BKN013 OVC021 09/08 A3014

时间: 22:47 (03:47 UTC)

预报

该预报发布于1小时和48分钟前的01:59 UTC
预报有效从21日的 02点(UTC)到 21日的 24点(UTC)
风速11节,风向北转东北,有时为16节阵风
能見度: 8.0公里
散云层高于600英尺
阴天层高于900英尺
小雨, 轻雾
从 21日的 0500点(UTC)
风速12节,风向,有时为20节阵风
能見度: 10公里
阴天层高于600英尺
从 21日的 1600点(UTC)
风速15节,风向,有时为25节阵风
能見度: 10公里
散云层高于600英尺
多云层高于1200英尺
阴天层高于2000英尺
从 21日的 1800点(UTC)
风速18节,风向,有时为28节阵风
能見度: 10公里
散云层高于3000英尺

TAF: KVQQ 210159Z 2102/2124 03011G16KT 5SM -RA BR SCT006 OVC009 FM210500 35012G20KT P6SM OVC006 FM211600 01015G25KT P6SM SCT006 BKN012 OVC020 FM211800 36018G28KT P6SM SCT030

超过4000个机场的气象观测和天气预报(METAR&TAF报告)。

可查询的气象台以黄色和红色小点在地图上表示。

将鼠标移到小点上方,可查看气象台名称。

然后点击查看天气观测和预报。

如需切换地图:点击带黑十字的绿色按钮放大地图;点击带横线的绿色按钮缩小地图;或者点击绿色箭头查看邻近地区的地图。


METAR-TAF: